Time;durP1;ratioP1;P1;durP2;ratioP2;P2;SDS_P1;SDS_P2;PMS_P1;PMS_P2;Temp;Humidity;BMP_temperature;BMP_pressure;BME280_temperature;BME280_humidity;BME280_pressure;Samples;Min_cycle;Max_cycle;Signal;HPM_P1;HPM_P2
2023/10/10 00:11:19;;;;;;;46.00;20.50;;;;;;;4.50;75.40;100768.13;672462;1264;138794;-82
2023/10/10 00:26:23;;;;;;;43.90;22.60;;;;;;;4.51;75.34;100762.88;672217;1265;139313;-80
2023/10/10 00:41:26;;;;;;;45.50;21.10;;;;;;;4.37;75.16;100762.05;672680;1264;138687;-81
2023/10/10 00:56:30;;;;;;;42.00;18.50;;;;;;;4.19;76.97;100746.09;672624;1273;138646;-81
2023/10/10 01:11:34;;;;;;;56.90;23.00;;;;;;;4.09;77.75;100740.38;672714;1263;138830;-81
2023/10/10 01:26:44;;;;;;;39.50;20.60;;;;;;;4.19;77.11;100737.75;672775;1262;139812;-80
2023/10/10 01:41:51;;;;;;;48.50;21.40;;;;;;;3.96;76.99;100747.10;671998;1273;138582;-80
2023/10/10 01:56:56;;;;;;;47.50;19.70;;;;;;;4.00;78.47;100744.33;669508;1263;139179;-80
2023/10/10 02:12:08;;;;;;;55.00;24.80;;;;;;;3.99;77.99;100744.32;669507;1265;138717;-80
2023/10/10 02:27:13;;;;;;;115.80;35.00;;;;;;;4.02;78.19;100752.52;668269;1263;139243;-80
2023/10/10 02:42:19;;;;;;;56.20;23.50;;;;;;;4.07;77.82;100766.61;668018;1269;139202;-79
2023/10/10 03:12:30;;;;;;;52.60;25.20;;;;;;;4.03;77.78;100766.27;669918;1263;138930;-78
2023/10/10 03:27:50;;;;;;;50.50;23.50;;;;;;;4.05;77.52;100762.04;669457;1264;141739;-81
2023/10/10 05:30:39;;;;;;;127.70;48.10;;;;;;;3.60;79.51;100842.05;674905;1263;138776;-80
2023/10/10 05:45:44;;;;;;;212.00;83.50;;;;;;;3.58;80.38;100848.17;673171;1264;139059;-81
2023/10/10 06:00:53;;;;;;;138.60;57.70;;;;;;;3.91;81.29;100854.33;674004;1260;139676;-82
2023/10/10 06:16:06;;;;;;;61.10;30.70;;;;;;;5.01;82.68;100868.68;673340;1263;139366;-81
2023/10/10 06:31:14;;;;;;;57.20;30.80;;;;;;;6.92;79.89;100879.60;673288;1258;139336;-82
2023/10/10 06:46:18;;;;;;;55.10;30.70;;;;;;;7.03;78.73;100894.75;677227;1263;137921;-83
2023/10/10 07:01:21;;;;;;;70.00;36.10;;;;;;;8.55;77.05;100902.01;673470;1259;139476;-81
2023/10/10 07:16:25;;;;;;;69.70;36.10;;;;;;;7.77;77.89;100890.02;672437;1264;138990;-82
2023/10/10 07:31:34;;;;;;;65.80;36.50;;;;;;;8.30;80.23;100899.48;673132;1266;139550;-82
2023/10/10 07:46:37;;;;;;;59.80;35.50;;;;;;;12.49;80.01;100899.03;674102;1263;140363;-82
2023/10/10 08:01:42;;;;;;;227.70;117.10;;;;;;;16.59;72.25;100891.55;675556;1263;139278;-83
2023/10/10 08:16:46;;;;;;;39.00;26.40;;;;;;;17.99;66.20;100887.60;673390;1262;139132;-81
2023/10/10 08:31:51;;;;;;;39.00;27.50;;;;;;;18.26;63.49;100889.20;674534;1264;144010;-80
2023/10/10 08:46:58;;;;;;;20.60;13.80;;;;;;;19.77;59.86;100882.16;674018;1265;138483;-81
2023/10/10 09:02:16;;;;;;;22.00;16.10;;;;;;;18.65;57.79;100882.23;674723;1259;138871;-82
2023/10/10 09:17:28;;;;;;;26.10;14.20;;;;;;;18.10;58.45;100885.31;674975;1275;139065;-81
2023/10/10 09:32:36;;;;;;;15.30;9.50;;;;;;;18.26;58.05;100890.66;673931;1262;138869;-82
2023/10/10 09:48:06;;;;;;;13.10;6.20;;;;;;;19.17;55.21;100893.35;674418;1259;138867;-79
2023/10/10 10:18:44;;;;;;;14.60;7.10;;;;;;;19.85;51.01;100888.52;674781;1264;138241;-81
2023/10/10 10:34:10;;;;;;;11.10;6.00;;;;;;;19.89;50.75;100879.95;672770;1265;139227;-80
2023/10/10 10:49:13;;;;;;;9.50;6.50;;;;;;;19.57;51.29;100872.31;669491;1263;138789;-79
2023/10/10 11:04:26;;;;;;;10.80;6.30;;;;;;;19.65;52.16;100855.02;670962;1264;138414;-79
2023/10/10 11:34:46;;;;;;;7.50;4.10;;;;;;;17.80;51.99;100834.66;669464;1264;138846;-80
2023/10/10 11:50:05;;;;;;;10.00;5.20;;;;;;;17.45;51.74;100830.30;670119;1260;138896;-81
2023/10/10 12:20:31;;;;;;;11.20;6.50;;;;;;;17.35;52.59;100805.91;673196;1259;139895;-80
2023/10/10 12:35:37;;;;;;;9.20;5.80;;;;;;;17.20;52.90;100796.91;671188;1265;138602;-81
2023/10/10 12:50:44;;;;;;;9.00;4.70;;;;;;;16.58;52.70;100780.16;672830;1258;140453;-79
2023/10/10 13:05:47;;;;;;;7.90;4.80;;;;;;;16.52;53.53;100759.80;674035;1264;139167;-80
2023/10/10 13:20:51;;;;;;;10.70;6.30;;;;;;;16.70;53.65;100746.28;671388;1264;139337;-80
2023/10/10 13:35:54;;;;;;;7.80;4.60;;;;;;;16.63;53.56;100766.41;671763;1263;138252;-80
2023/10/10 13:50:59;;;;;;;7.00;5.10;;;;;;;16.33;54.28;100756.71;675920;1264;139148;-80
2023/10/10 14:06:04;;;;;;;13.40;5.00;;;;;;;15.96;55.48;100759.47;673004;1265;138786;-82
2023/10/10 14:21:09;;;;;;;10.20;4.40;;;;;;;16.11;55.21;100751.39;674712;1264;138969;-82
2023/10/10 14:36:12;;;;;;;8.60;5.10;;;;;;;16.00;55.18;100746.85;676887;1262;139650;-82
2023/10/10 14:51:18;;;;;;;10.10;8.00;;;;;;;15.57;54.84;100746.25;675528;1265;139788;-82
2023/10/10 15:06:22;;;;;;;48.40;21.90;;;;;;;15.33;55.10;100737.08;674004;1265;139191;-82
2023/10/10 15:21:32;;;;;;;13.70;7.90;;;;;;;14.97;55.90;100737.31;674932;1260;139590;-82
2023/10/10 15:36:35;;;;;;;106.90;41.40;;;;;;;14.41;56.83;100712.16;675738;1263;138301;-82
2023/10/10 15:51:39;;;;;;;35.00;26.80;;;;;;;13.94;57.65;100716.14;677975;1262;139157;-82
2023/10/10 16:06:46;;;;;;;17.30;12.00;;;;;;;13.39;59.71;100714.42;675256;1262;139553;-81
2023/10/10 16:21:52;;;;;;;23.00;14.60;;;;;;;12.88;61.50;100688.48;674329;1262;138906;-81
2023/10/10 16:36:57;;;;;;;60.80;21.80;;;;;;;12.48;62.40;100705.45;674823;1268;140250;-81
2023/10/10 16:52:05;;;;;;;41.60;19.70;;;;;;;12.18;63.52;100707.40;674179;1263;139116;-81
2023/10/10 17:07:11;;;;;;;26.70;13.90;;;;;;;11.85;64.70;100680.11;675090;1262;139697;-81
2023/10/10 17:22:16;;;;;;;15.20;9.00;;;;;;;11.66;66.00;100697.65;678193;1266;139403;-81
2023/10/10 17:37:20;;;;;;;105.30;52.30;;;;;;;11.46;66.63;100701.30;674137;1263;139153;-81
2023/10/10 17:52:24;;;;;;;117.60;36.60;;;;;;;11.19;67.35;100687.97;674202;1263;139408;-81
2023/10/10 18:07:28;;;;;;;28.90;14.50;;;;;;;10.84;68.23;100673.16;674081;1262;139984;-81
2023/10/10 18:22:31;;;;;;;26.40;13.60;;;;;;;10.78;69.79;100670.36;674576;1273;139176;-81
2023/10/10 18:37:39;;;;;;;35.50;15.30;;;;;;;10.74;70.14;100669.46;673593;1262;139231;-81
2023/10/10 18:52:44;;;;;;;99.00;46.60;;;;;;;10.53;71.45;100679.73;678318;1267;139430;-82
2023/10/10 19:07:47;;;;;;;64.30;27.70;;;;;;;10.36;72.20;100667.15;673187;1263;139447;-81
2023/10/10 19:22:54;;;;;;;25.20;14.30;;;;;;;10.18;72.88;100662.90;675224;1264;139358;-81
2023/10/10 19:37:58;;;;;;;49.70;20.90;;;;;;;10.18;72.36;100659.83;673059;1264;139633;-81
2023/10/10 19:53:02;;;;;;;68.70;27.40;;;;;;;10.00;72.55;100659.67;674635;1263;139249;-81
2023/10/10 20:08:09;;;;;;;52.80;24.90;;;;;;;9.59;73.50;100634.44;674199;1261;140152;-81
2023/10/10 20:23:13;;;;;;;92.10;33.40;;;;;;;9.67;73.81;100626.24;674122;1266;162642;-81
2023/10/10 20:38:18;;;;;;;101.80;39.00;;;;;;;9.69;75.77;100622.80;676001;1273;139118;-82
2023/10/10 20:53:23;;;;;;;153.90;60.30;;;;;;;9.29;74.92;100616.25;672551;1260;139536;-81
2023/10/10 21:08:30;;;;;;;138.20;53.60;;;;;;;9.03;74.46;100602.36;673046;1273;139184;-81
2023/10/10 21:23:34;;;;;;;111.40;45.70;;;;;;;8.80;75.08;100591.94;673701;1268;139705;-81
2023/10/10 21:38:38;;;;;;;94.80;33.70;;;;;;;8.68;75.70;100588.64;674561;1267;139215;-80
2023/10/10 21:53:46;;;;;;;54.20;23.20;;;;;;;8.62;77.70;100578.83;674447;1271;139015;-80
2023/10/10 22:08:49;;;;;;;84.10;35.40;;;;;;;9.10;80.58;100565.34;672089;1270;139817;-81
2023/10/10 22:23:53;;;;;;;75.00;30.60;;;;;;;9.88;82.99;100541.98;676497;1264;139269;-81
2023/10/10 22:38:56;;;;;;;48.10;23.10;;;;;;;10.34;87.26;100525.11;673274;1267;139126;-80
2023/10/10 22:54:01;;;;;;;49.60;22.80;;;;;;;10.54;90.25;100511.42;672830;1265;139420;-80
2023/10/10 23:09:07;;;;;;;54.10;24.30;;;;;;;10.65;93.00;100497.04;673550;1267;139259;-81
2023/10/10 23:24:11;;;;;;;58.80;27.10;;;;;;;10.71;95.26;100475.58;671825;1267;139881;-81
2023/10/10 23:39:16;;;;;;;51.80;24.60;;;;;;;11.05;95.59;100459.64;671893;1267;139670;-81
2023/10/10 23:54:22;;;;;;;50.40;25.80;;;;;;;11.24;96.49;100441.73;672493;1263;140239;-81
